createdAt,value
2022-09-10T00:00:13.183Z,18.74
2022-09-10T00:01:52.857Z,18.73
2022-09-10T00:03:32.687Z,18.71
2022-09-10T00:05:12.439Z,18.7
2022-09-10T00:06:52.235Z,18.69
2022-09-10T00:08:31.988Z,18.69
2022-09-10T00:10:11.669Z,18.67
2022-09-10T00:11:51.514Z,18.66
2022-09-10T00:13:31.229Z,18.66
2022-09-10T00:15:11.079Z,18.66
2022-09-10T00:16:50.704Z,18.64
2022-09-10T00:18:30.515Z,18.62
2022-09-10T00:20:10.238Z,18.62
2022-09-10T00:21:50.089Z,18.61
2022-09-10T00:23:29.862Z,18.59
2022-09-10T00:25:09.526Z,18.58
2022-09-10T00:26:49.371Z,18.57
2022-09-10T00:28:29.069Z,18.57
2022-09-10T00:30:08.872Z,18.54
2022-09-10T00:31:48.674Z,18.54
2022-09-10T00:33:28.377Z,18.53
2022-09-10T00:35:08.126Z,18.53
2022-09-10T00:36:47.878Z,18.5
2022-09-10T00:38:27.651Z,18.51
2022-09-10T00:40:07.441Z,18.48
2022-09-10T00:41:47.313Z,18.48
2022-09-10T00:43:27.076Z,18.46
2022-09-10T00:45:06.738Z,18.45
2022-09-10T00:46:46.590Z,18.43
2022-09-10T00:50:06.019Z,18.42
2022-09-10T00:51:45.898Z,18.41
2022-09-10T00:53:25.524Z,18.41
2022-09-10T00:55:05.348Z,18.39
2022-09-10T00:56:45.057Z,18.37
2022-09-10T00:58:24.914Z,18.36
2022-09-10T01:00:04.603Z,18.36
2022-09-10T01:01:44.377Z,18.35
2022-09-10T01:03:24.222Z,18.34
2022-09-10T01:05:03.938Z,18.33
2022-09-10T01:06:43.642Z,18.32
2022-09-10T01:08:23.529Z,18.29
2022-09-10T01:10:03.164Z,18.29
2022-09-10T01:11:42.969Z,18.29
2022-09-10T01:13:22.758Z,18.26
2022-09-10T01:15:02.550Z,18.25
2022-09-10T01:16:42.305Z,18.24
2022-09-10T01:18:22.100Z,18.25
2022-09-10T01:20:01.761Z,18.2
2022-09-10T01:21:41.535Z,18.2
2022-09-10T01:23:21.311Z,18.19
2022-09-10T01:25:01.185Z,18.2
2022-09-10T01:26:40.894Z,18.18
2022-09-10T01:28:20.588Z,18.18
2022-09-10T01:30:00.340Z,18.15
2022-09-10T01:31:40.109Z,18.15
2022-09-10T01:33:19.993Z,18.14
2022-09-10T01:34:59.728Z,18.12
2022-09-10T01:36:39.454Z,18.11
2022-09-10T01:38:19.191Z,18.1
2022-09-10T01:39:59.020Z,18.09
2022-09-10T01:41:38.695Z,18.09
2022-09-10T01:43:18.570Z,18.06
2022-09-10T01:44:58.217Z,18.07
2022-09-10T01:46:37.990Z,18.06
2022-09-10T01:48:17.888Z,18.03
2022-09-10T01:49:57.514Z,18.04
2022-09-10T01:51:37.354Z,18.03
2022-09-10T01:53:17.069Z,18
2022-09-10T01:54:56.828Z,18.01
2022-09-10T01:56:36.705Z,18
2022-09-10T01:58:16.410Z,17.99
2022-09-10T01:59:56.235Z,17.95
2022-09-10T02:01:35.948Z,17.95
2022-09-10T02:03:15.658Z,17.95
2022-09-10T02:04:55.399Z,17.94
2022-09-10T02:08:14.988Z,17.92
2022-09-10T02:09:54.819Z,17.91
2022-09-10T02:11:34.564Z,17.87
2022-09-10T02:13:14.216Z,17.89
2022-09-10T02:14:54.069Z,17.87
2022-09-10T02:16:33.755Z,17.86
2022-09-10T02:18:13.508Z,17.85
2022-09-10T02:19:53.310Z,17.85
2022-09-10T02:21:33.133Z,17.83
2022-09-10T02:23:12.872Z,17.79
2022-09-10T02:24:52.659Z,17.81
2022-09-10T02:26:32.420Z,17.78
2022-09-10T02:28:12.169Z,17.77
2022-09-10T02:31:31.734Z,17.77
2022-09-10T02:33:11.399Z,17.76
2022-09-10T02:34:51.269Z,17.74
2022-09-10T02:36:30.923Z,17.74
2022-09-10T02:38:10.711Z,17.7
2022-09-10T02:39:50.511Z,17.7
2022-09-10T02:41:30.239Z,17.7
2022-09-10T02:43:10.077Z,17.68
2022-09-10T02:44:49.848Z,17.67
2022-09-10T02:46:29.504Z,17.65
2022-09-10T02:48:09.283Z,17.65
2022-09-10T02:49:49.052Z,17.65
2022-09-10T02:51:28.829Z,17.64
2022-09-10T02:53:08.578Z,17.61
2022-09-10T02:54:48.333Z,17.61
2022-09-10T02:56:28.158Z,17.61
2022-09-10T02:58:07.939Z,17.58
2022-09-10T02:59:47.627Z,17.59
2022-09-10T03:01:27.404Z,17.56
2022-09-10T03:03:07.156Z,17.54
2022-09-10T03:04:46.921Z,17.56
2022-09-10T03:06:26.706Z,17.54
2022-09-10T03:08:06.473Z,17.52
2022-09-10T03:09:46.215Z,17.52
2022-09-10T03:11:25.991Z,17.5
2022-09-10T03:13:05.750Z,17.49
2022-09-10T03:14:45.518Z,17.48
2022-09-10T03:16:25.267Z,17.49
2022-09-10T03:18:05.078Z,17.46
2022-09-10T03:19:44.846Z,17.46
2022-09-10T03:21:24.576Z,17.45
2022-09-10T03:23:04.350Z,17.43
2022-09-10T03:24:44.108Z,17.44
2022-09-10T03:26:23.873Z,17.43
2022-09-10T03:28:03.642Z,17.4
2022-09-10T03:29:43.402Z,17.39
2022-09-10T03:31:23.188Z,17.37
2022-09-10T03:33:02.953Z,17.36
2022-09-10T03:34:42.708Z,17.37
2022-09-10T03:36:22.491Z,17.36
2022-09-10T03:38:02.254Z,17.34
2022-09-10T03:39:42.025Z,17.33
2022-09-10T03:41:21.780Z,17.32
2022-09-10T03:43:01.548Z,17.31
2022-09-10T03:44:41.336Z,17.29
2022-09-10T03:46:21.084Z,17.29
2022-09-10T03:48:00.873Z,17.27
2022-09-10T03:49:40.622Z,17.28
2022-09-10T03:51:20.382Z,17.26
2022-09-10T03:53:00.163Z,17.26
2022-09-10T03:54:39.922Z,17.25
2022-09-10T03:56:19.691Z,17.24
2022-09-10T03:57:59.462Z,17.21
2022-09-10T03:59:39.208Z,17.2
2022-09-10T04:01:18.990Z,17.2
2022-09-10T04:02:58.745Z,17.2
2022-09-10T04:04:38.516Z,17.18
2022-09-10T04:06:18.271Z,17.17
2022-09-10T04:07:58.028Z,17.18
2022-09-10T04:09:37.891Z,17.16
2022-09-10T04:11:17.584Z,17.14
2022-09-10T04:12:57.333Z,17.15
2022-09-10T04:14:37.098Z,17.14
2022-09-10T04:16:16.865Z,17.12
2022-09-10T04:17:56.707Z,17.12
2022-09-10T04:19:36.377Z,17.14
2022-09-10T04:21:16.149Z,17.19
2022-09-10T04:22:55.911Z,17.2
2022-09-10T04:24:35.671Z,17.21
2022-09-10T04:26:15.440Z,17.21
2022-09-10T04:27:55.219Z,17.23
2022-09-10T04:29:34.968Z,17.23
2022-09-10T04:31:14.743Z,17.23
2022-09-10T04:32:54.504Z,17.27
2022-09-10T04:34:34.259Z,17.28
2022-09-10T04:36:14.045Z,17.28
2022-09-10T04:37:53.811Z,17.29
2022-09-10T04:39:33.646Z,17.29
2022-09-10T04:41:13.349Z,17.29
2022-09-10T04:42:53.108Z,17.32
2022-09-10T04:44:32.862Z,17.29
2022-09-10T04:46:12.612Z,17.32
2022-09-10T04:47:52.413Z,17.34
2022-09-10T04:49:32.142Z,17.33
2022-09-10T04:51:11.902Z,17.34
2022-09-10T04:52:51.686Z,17.36
2022-09-10T04:54:31.457Z,17.35
2022-09-10T04:56:11.211Z,17.35
2022-09-10T04:57:50.979Z,17.35
2022-09-10T04:59:30.735Z,17.36
2022-09-10T05:01:10.504Z,17.36
2022-09-10T05:02:50.267Z,17.36
2022-09-10T05:04:30.028Z,17.37
2022-09-10T05:06:09.803Z,17.35
2022-09-10T05:07:49.578Z,17.36
2022-09-10T05:09:29.325Z,17.36
2022-09-10T05:11:09.088Z,17.36
2022-09-10T05:12:48.862Z,17.37
2022-09-10T05:14:28.628Z,17.39
2022-09-10T05:16:08.398Z,17.36
2022-09-10T05:17:48.173Z,17.37
2022-09-10T05:19:27.942Z,17.35
2022-09-10T05:21:07.700Z,17.36
2022-09-10T05:24:27.252Z,17.39
2022-09-10T05:26:07.016Z,17.37
2022-09-10T05:27:46.794Z,17.36
2022-09-10T05:29:26.564Z,17.37
2022-09-10T05:31:06.329Z,17.37
2022-09-10T05:32:46.095Z,17.37
2022-09-10T05:34:25.877Z,17.4
2022-09-10T05:36:05.633Z,17.37
2022-09-10T05:37:45.415Z,17.37
2022-09-10T05:39:25.185Z,17.39
2022-09-10T05:41:04.956Z,17.37
2022-09-10T05:42:44.719Z,17.37
2022-09-10T05:44:24.483Z,17.37
2022-09-10T05:46:04.263Z,17.37
2022-09-10T05:47:44.040Z,17.36
2022-09-10T05:49:23.812Z,17.34
2022-09-10T05:51:03.583Z,17.37
2022-09-10T05:52:43.335Z,17.37
2022-09-10T05:54:23.115Z,17.39
2022-09-10T05:56:02.883Z,17.37
2022-09-10T05:57:42.656Z,17.37
2022-09-10T05:59:22.421Z,17.37
2022-09-10T06:01:02.204Z,17.37
2022-09-10T06:02:41.970Z,17.41
2022-09-10T06:04:21.740Z,17.39
2022-09-10T06:06:01.505Z,17.42
2022-09-10T06:07:41.499Z,17.43
2022-09-10T06:09:21.044Z,17.45
2022-09-10T06:11:00.808Z,17.43
2022-09-10T06:12:40.578Z,17.43
2022-09-10T06:14:20.352Z,17.4
2022-09-10T06:16:00.134Z,17.4
2022-09-10T06:17:39.915Z,17.4
2022-09-10T06:19:19.714Z,17.43
2022-09-10T06:20:59.440Z,17.5
2022-09-10T06:22:39.231Z,17.59
2022-09-10T06:24:18.978Z,17.68
2022-09-10T06:25:58.792Z,17.74
2022-09-10T06:27:38.517Z,17.85
2022-09-10T06:29:18.299Z,17.93
2022-09-10T06:30:58.078Z,18.03
2022-09-10T06:32:37.827Z,18.09
2022-09-10T06:34:17.609Z,18.17
2022-09-10T06:35:57.363Z,18.23
2022-09-10T06:37:37.144Z,18.32
2022-09-10T06:39:16.939Z,18.37
2022-09-10T06:40:56.673Z,18.45
2022-09-10T06:42:36.454Z,18.51
2022-09-10T06:44:16.238Z,18.57
2022-09-10T06:45:55.997Z,18.65
2022-09-10T06:47:35.757Z,18.68
2022-09-10T06:49:15.549Z,18.76
2022-09-10T06:50:55.302Z,18.79
2022-09-10T06:52:35.072Z,18.87
2022-09-10T06:54:14.841Z,18.93
2022-09-10T06:55:54.627Z,18.96
2022-09-10T06:57:34.390Z,19.03
2022-09-10T06:59:14.153Z,19.11
2022-09-10T07:00:53.926Z,19.16
2022-09-10T07:02:33.706Z,19.2
2022-09-10T07:04:13.466Z,19.26
2022-09-10T07:05:53.241Z,19.31
2022-09-10T07:07:33.010Z,19.37
2022-09-10T07:09:12.790Z,19.42
2022-09-10T07:10:52.564Z,19.48
2022-09-10T07:12:32.336Z,19.53
2022-09-10T07:14:12.095Z,19.57
2022-09-10T07:15:51.857Z,19.65
2022-09-10T07:17:31.637Z,19.68
2022-09-10T07:19:11.414Z,19.74
2022-09-10T07:20:51.168Z,19.79
2022-09-10T07:22:30.938Z,19.82
2022-09-10T07:24:10.718Z,19.89
2022-09-10T07:25:50.482Z,19.94
2022-09-10T07:27:30.247Z,19.98
2022-09-10T07:29:10.036Z,20.03
2022-09-10T07:30:49.804Z,20.07
2022-09-10T07:32:29.564Z,20.11
2022-09-10T07:34:09.329Z,20.17
2022-09-10T07:35:49.110Z,20.23
2022-09-10T07:37:28.882Z,20.25
2022-09-10T07:39:08.645Z,20.29
2022-09-10T07:40:48.424Z,20.35
2022-09-10T07:42:28.178Z,20.4
2022-09-10T07:44:07.961Z,20.41
2022-09-10T07:45:47.736Z,20.46
2022-09-10T07:47:27.508Z,20.52
2022-09-10T07:49:07.273Z,20.57
2022-09-10T07:50:47.035Z,20.58
2022-09-10T07:52:26.805Z,20.62
2022-09-10T07:54:06.570Z,20.67
2022-09-10T07:55:46.354Z,20.71
2022-09-10T07:57:26.114Z,20.77
2022-09-10T07:59:05.922Z,20.79
2022-09-10T08:00:45.665Z,20.8
2022-09-10T08:02:25.434Z,20.84
2022-09-10T08:04:05.243Z,20.91
2022-09-10T08:05:44.977Z,20.94
2022-09-10T08:07:24.781Z,20.96
2022-09-10T08:09:04.517Z,21.01
2022-09-10T08:10:44.290Z,21.04
2022-09-10T08:12:24.052Z,21.08
2022-09-10T08:14:03.834Z,21.11
2022-09-10T08:15:43.601Z,21.18
2022-09-10T08:17:23.372Z,21.2
2022-09-10T08:19:03.138Z,21.24
2022-09-10T08:20:42.915Z,21.27
2022-09-10T08:22:22.687Z,21.29
2022-09-10T08:24:02.451Z,21.35
2022-09-10T08:25:42.218Z,21.38
2022-09-10T08:27:21.993Z,21.43
2022-09-10T08:29:01.759Z,21.45
2022-09-10T08:30:41.524Z,21.48
2022-09-10T08:32:21.296Z,21.54
2022-09-10T08:34:01.066Z,21.57
2022-09-10T08:35:40.833Z,21.61
2022-09-10T08:37:20.614Z,21.63
2022-09-10T08:39:00.395Z,21.68
2022-09-10T08:40:40.153Z,21.71
2022-09-10T08:43:59.700Z,21.8
2022-09-10T08:45:39.471Z,21.82
2022-09-10T08:47:19.241Z,21.85
2022-09-10T08:48:59.009Z,21.89
2022-09-10T08:50:38.770Z,21.91
2022-09-10T08:52:18.544Z,21.97
2022-09-10T08:53:58.316Z,22.02
2022-09-10T08:55:38.082Z,22.02
2022-09-10T08:57:17.875Z,22.07
2022-09-10T08:58:57.619Z,22.1
2022-09-10T09:00:37.399Z,22.15
2022-09-10T09:02:17.177Z,22.21
2022-09-10T09:03:56.987Z,22.22
2022-09-10T09:05:36.720Z,22.26
2022-09-10T09:07:16.476Z,22.28
2022-09-10T09:08:56.260Z,22.35
2022-09-10T09:10:36.022Z,22.38
2022-09-10T09:12:15.797Z,22.43
2022-09-10T09:13:55.580Z,22.44
2022-09-10T09:15:35.322Z,22.47
2022-09-10T09:17:15.095Z,22.51
2022-09-10T09:18:54.930Z,22.57
2022-09-10T09:20:34.643Z,22.6
2022-09-10T09:22:14.420Z,22.63
2022-09-10T09:23:54.182Z,22.61
2022-09-10T09:25:33.968Z,22.56
2022-09-10T09:27:13.706Z,22.52
2022-09-10T09:28:53.469Z,22.46
2022-09-10T09:30:33.250Z,22.39
2022-09-10T09:32:13.052Z,22.36
2022-09-10T09:33:52.783Z,22.31
2022-09-10T09:35:32.554Z,22.29
2022-09-10T09:37:12.313Z,22.3
2022-09-10T09:38:52.120Z,22.3
2022-09-10T09:40:31.851Z,22.31
2022-09-10T09:42:11.618Z,22.37
2022-09-10T09:43:51.384Z,22.37
2022-09-10T09:45:31.151Z,22.4
2022-09-10T09:47:10.967Z,22.44
2022-09-10T09:48:50.683Z,22.45
2022-09-10T09:50:30.445Z,22.49
2022-09-10T09:52:10.210Z,22.5
2022-09-10T09:53:49.996Z,22.54
2022-09-10T09:55:29.749Z,22.57
2022-09-10T09:57:09.558Z,22.6
2022-09-10T09:58:49.397Z,22.64
2022-09-10T10:00:29.065Z,22.67
2022-09-10T10:02:08.827Z,22.71
2022-09-10T10:03:48.593Z,22.74
2022-09-10T10:05:28.361Z,22.79
2022-09-10T10:07:08.138Z,22.82
2022-09-10T10:08:47.919Z,22.86
2022-09-10T10:10:27.654Z,22.89
2022-09-10T10:12:07.419Z,22.93
2022-09-10T10:13:47.237Z,22.94
2022-09-10T10:15:26.963Z,22.98
2022-09-10T10:17:06.793Z,23.03
2022-09-10T10:18:46.478Z,23.09
2022-09-10T10:20:26.251Z,23.15
2022-09-10T10:23:45.793Z,23.24
2022-09-10T10:25:25.569Z,23.24
2022-09-10T10:27:05.323Z,23.32
2022-09-10T10:28:45.092Z,23.33
2022-09-10T10:30:24.883Z,23.35
2022-09-10T10:32:04.637Z,23.41
2022-09-10T10:33:44.395Z,23.44
2022-09-10T10:35:24.173Z,23.46
2022-09-10T10:37:03.936Z,23.5
2022-09-10T10:38:43.693Z,23.5
2022-09-10T10:40:23.474Z,23.55
2022-09-10T10:42:03.226Z,23.57
2022-09-10T10:43:43.010Z,23.61
2022-09-10T10:45:22.779Z,23.63
2022-09-10T10:47:02.542Z,23.67
2022-09-10T10:48:42.299Z,23.69
2022-09-10T10:50:22.067Z,23.72
2022-09-10T10:52:01.849Z,23.75
2022-09-10T10:53:41.608Z,23.82
2022-09-10T10:55:21.380Z,23.84
2022-09-10T10:57:01.140Z,23.89
2022-09-10T10:58:40.915Z,23.92
2022-09-10T11:00:20.693Z,23.93
2022-09-10T11:02:00.449Z,24
2022-09-10T11:03:40.222Z,24.01
2022-09-10T11:05:19.984Z,24.04
2022-09-10T11:06:59.762Z,24.08
2022-09-10T11:08:39.502Z,24.09
2022-09-10T11:10:19.287Z,24.15
2022-09-10T11:11:59.087Z,24.18
2022-09-10T11:13:38.865Z,24.22
2022-09-10T11:15:18.592Z,24.25
2022-09-10T11:16:58.381Z,24.26
2022-09-10T11:18:38.110Z,24.33
2022-09-10T11:20:17.888Z,24.35
2022-09-10T11:21:57.661Z,24.37
2022-09-10T11:23:37.479Z,24.39
2022-09-10T11:25:17.182Z,24.41
2022-09-10T11:26:57.066Z,24.44
2022-09-10T11:28:36.743Z,24.5
2022-09-10T11:30:16.495Z,24.51
2022-09-10T11:33:36.037Z,24.56
2022-09-10T11:35:15.801Z,24.6
2022-09-10T11:36:55.564Z,24.62
2022-09-10T11:38:35.335Z,24.65
2022-09-10T11:40:15.103Z,24.67
2022-09-10T11:41:54.865Z,24.7
2022-09-10T11:43:34.636Z,24.73
2022-09-10T11:50:13.701Z,24.84
2022-09-10T11:51:53.476Z,24.88
2022-09-10T11:53:33.241Z,24.91
2022-09-10T11:55:12.999Z,24.91
2022-09-10T11:56:52.772Z,24.95
2022-09-10T11:58:32.585Z,25.01
2022-09-10T12:00:12.311Z,25.01
2022-09-10T12:01:52.070Z,25.06
2022-09-10T12:03:31.845Z,25.08
2022-09-10T12:05:11.623Z,25.11
2022-09-10T12:06:51.374Z,25.15
2022-09-10T12:08:31.135Z,25.17
2022-09-10T12:10:10.907Z,25.24
2022-09-10T12:11:50.693Z,25.25
2022-09-10T12:13:30.462Z,25.29
2022-09-10T12:15:10.240Z,25.3
2022-09-10T12:16:50.012Z,25.34
2022-09-10T12:18:29.741Z,25.33
2022-09-10T12:20:09.520Z,25.37
2022-09-10T12:21:49.289Z,25.39
2022-09-10T12:25:08.814Z,25.44
2022-09-10T12:26:48.597Z,25.47
2022-09-10T12:28:28.357Z,25.48
2022-09-10T12:30:08.115Z,25.51
2022-09-10T12:31:47.883Z,25.53
2022-09-10T12:33:27.697Z,25.54
2022-09-10T12:35:07.432Z,25.52
2022-09-10T12:36:47.228Z,25.53
2022-09-10T12:38:26.961Z,25.57
2022-09-10T12:40:06.726Z,25.59
2022-09-10T12:41:46.495Z,25.61
2022-09-10T12:43:26.275Z,25.6
2022-09-10T12:45:06.038Z,25.64
2022-09-10T12:46:45.804Z,25.68
2022-09-10T12:48:25.649Z,25.69
2022-09-10T12:50:05.325Z,25.7
2022-09-10T12:51:45.104Z,25.74
2022-09-10T12:53:24.855Z,25.73
2022-09-10T12:55:04.655Z,25.77
2022-09-10T12:56:44.406Z,25.78
2022-09-10T12:58:24.175Z,25.82
2022-09-10T13:00:03.934Z,25.86
2022-09-10T13:01:43.697Z,25.86
2022-09-10T13:03:23.458Z,25.87
2022-09-10T13:05:03.282Z,25.87
2022-09-10T13:06:43.008Z,25.91
2022-09-10T13:08:22.776Z,25.95
2022-09-10T13:10:02.554Z,25.95
2022-09-10T13:11:42.309Z,25.98
2022-09-10T13:13:22.106Z,26
2022-09-10T13:15:01.830Z,26.02
2022-09-10T13:16:41.610Z,26.03
2022-09-10T13:18:21.368Z,26.08
2022-09-10T13:20:01.137Z,26.06
2022-09-10T13:21:40.917Z,26.08
2022-09-10T13:23:20.669Z,26.09
2022-09-10T13:25:00.454Z,26.13
2022-09-10T13:26:40.235Z,26.13
2022-09-10T13:28:19.984Z,26.17
2022-09-10T13:29:59.753Z,26.15
2022-09-10T13:31:39.548Z,26.16
2022-09-10T13:33:19.288Z,26.18
2022-09-10T13:34:59.054Z,26.21
2022-09-10T13:36:38.817Z,26.19
2022-09-10T13:38:18.580Z,26.2
2022-09-10T13:39:58.362Z,26.2
2022-09-10T13:43:17.893Z,26.23
2022-09-10T13:44:57.653Z,26.21
2022-09-10T13:46:37.413Z,26.22
2022-09-10T13:48:17.206Z,26.22
2022-09-10T13:49:56.955Z,26.24
2022-09-10T13:51:36.745Z,26.23
2022-09-10T13:53:16.501Z,26.22
2022-09-10T13:54:56.256Z,26.21
2022-09-10T13:56:36.020Z,26.22
2022-09-10T13:58:15.792Z,26.22
2022-09-10T13:59:55.568Z,26.22
2022-09-10T14:03:15.093Z,26.21
2022-09-10T14:04:54.906Z,26.21
2022-09-10T14:06:34.627Z,26.18
2022-09-10T14:08:14.399Z,26.19
2022-09-10T14:09:54.184Z,26.2
2022-09-10T14:11:33.945Z,26.19
2022-09-10T14:13:13.724Z,26.16
2022-09-10T14:14:53.464Z,26.14
2022-09-10T14:16:33.252Z,26.15
2022-09-10T14:18:13.052Z,26.14
2022-09-10T14:19:52.781Z,26.13
2022-09-10T14:21:32.561Z,26.1
2022-09-10T14:23:12.306Z,26.06
2022-09-10T14:24:52.082Z,26.06
2022-09-10T14:26:31.876Z,26.07
2022-09-10T14:28:11.602Z,26.05
2022-09-10T14:29:51.442Z,26.02
2022-09-10T14:31:31.171Z,25.98
2022-09-10T14:33:10.950Z,25.96
2022-09-10T14:34:50.709Z,25.95
2022-09-10T14:36:30.445Z,25.91
2022-09-10T14:38:10.220Z,25.91
2022-09-10T14:39:49.974Z,25.88
2022-09-10T14:41:29.747Z,25.84
2022-09-10T14:43:09.526Z,25.82
2022-09-10T14:44:49.280Z,25.81
2022-09-10T14:46:29.053Z,25.79
2022-09-10T14:48:08.824Z,25.77
2022-09-10T14:49:48.598Z,25.74
2022-09-10T14:51:28.364Z,25.73
2022-09-10T14:53:08.114Z,25.72
2022-09-10T14:54:47.895Z,25.67
2022-09-10T14:56:27.677Z,25.65
2022-09-10T14:58:07.425Z,25.62
2022-09-10T14:59:47.221Z,25.62
2022-09-10T15:01:26.957Z,25.62
2022-09-10T15:03:06.717Z,25.56
2022-09-10T15:04:46.485Z,25.56
2022-09-10T15:06:26.277Z,25.51
2022-09-10T15:08:06.036Z,25.5
2022-09-10T15:09:45.789Z,25.5
2022-09-10T15:11:25.553Z,25.45
2022-09-10T15:13:05.342Z,25.41
2022-09-10T15:14:45.096Z,25.41
2022-09-10T15:16:24.862Z,25.37
2022-09-10T15:18:04.627Z,25.37
2022-09-10T15:19:44.463Z,25.34
2022-09-10T15:21:24.165Z,25.34
2022-09-10T15:23:03.950Z,25.31
2022-09-10T15:24:43.707Z,25.31
2022-09-10T15:26:23.473Z,25.27
2022-09-10T15:28:03.244Z,25.27
2022-09-10T15:29:43.013Z,25.24
2022-09-10T15:31:22.782Z,25.22
2022-09-10T15:33:02.600Z,25.21
2022-09-10T15:34:42.304Z,25.18
2022-09-10T15:36:22.096Z,25.16
2022-09-10T15:38:01.839Z,25.17
2022-09-10T15:41:21.367Z,25.15
2022-09-10T15:43:01.137Z,25.11
2022-09-10T15:44:40.909Z,25.12
2022-09-10T15:46:20.705Z,25.12
2022-09-10T15:49:40.238Z,25.07
2022-09-10T15:51:19.992Z,25.07
2022-09-10T15:52:59.793Z,25.08
2022-09-10T15:54:39.520Z,25.07
2022-09-10T15:56:19.304Z,25.08
2022-09-10T15:59:38.806Z,25.07
2022-09-10T16:01:18.588Z,25.09
2022-09-10T16:02:58.360Z,25.09
2022-09-10T16:04:38.108Z,25.1
2022-09-10T16:06:17.890Z,25.11
2022-09-10T16:07:57.649Z,25.1
2022-09-10T16:09:37.434Z,25.11
2022-09-10T16:11:17.194Z,25.11
2022-09-10T16:12:56.992Z,25.14
2022-09-10T16:14:36.755Z,25.13
2022-09-10T16:16:16.497Z,25.13
2022-09-10T16:17:56.312Z,25.14
2022-09-10T16:19:36.035Z,25.14
2022-09-10T16:21:15.792Z,25.17
2022-09-10T16:22:55.563Z,25.18
2022-09-10T16:24:35.332Z,25.18
2022-09-10T16:26:15.114Z,25.22
2022-09-10T16:27:54.865Z,25.22
2022-09-10T16:29:34.636Z,25.23
2022-09-10T16:31:14.390Z,25.25
2022-09-10T16:32:54.161Z,25.24
2022-09-10T16:34:33.948Z,25.26
2022-09-10T16:36:13.701Z,25.26
2022-09-10T16:37:53.463Z,25.25
2022-09-10T16:39:33.233Z,25.26
2022-09-10T16:41:13.012Z,25.28
2022-09-10T16:42:52.839Z,25.29
2022-09-10T16:44:32.548Z,25.28
2022-09-10T16:46:12.310Z,25.27
2022-09-10T16:47:52.064Z,25.27
2022-09-10T16:49:31.836Z,25.25
2022-09-10T16:51:11.597Z,25.25
2022-09-10T16:52:51.368Z,25.26
2022-09-10T16:54:31.154Z,25.25
2022-09-10T16:56:10.896Z,25.24
2022-09-10T16:57:50.660Z,25.24
2022-09-10T16:59:30.447Z,25.25
2022-09-10T17:01:10.198Z,25.23
2022-09-10T17:02:49.972Z,25.23
2022-09-10T17:04:29.740Z,25.19
2022-09-10T17:06:09.535Z,25.21
2022-09-10T17:07:49.275Z,25.2
2022-09-10T17:09:29.043Z,25.2
2022-09-10T17:11:08.812Z,25.18
2022-09-10T17:12:48.591Z,25.18
2022-09-10T17:14:28.345Z,25.17
2022-09-10T17:16:08.112Z,25.16
2022-09-10T17:17:47.939Z,25.14
2022-09-10T17:19:27.665Z,25.13
2022-09-10T17:21:07.409Z,25.13
2022-09-10T17:22:47.172Z,25.12
2022-09-10T17:24:26.954Z,25.09
2022-09-10T17:26:06.728Z,25.07
2022-09-10T17:27:46.473Z,25.01
2022-09-10T17:29:26.275Z,24.96
2022-09-10T17:31:06.028Z,24.95
2022-09-10T17:32:45.779Z,24.89
2022-09-10T17:34:25.555Z,24.88
2022-09-10T17:36:05.310Z,24.87
2022-09-10T17:37:45.074Z,24.82
2022-09-10T17:39:24.832Z,24.8
2022-09-10T17:41:04.588Z,24.78
2022-09-10T17:42:44.361Z,24.77
2022-09-10T17:44:24.123Z,24.71
2022-09-10T17:46:03.913Z,24.7
2022-09-10T17:47:43.659Z,24.65
2022-09-10T17:49:23.412Z,24.62
2022-09-10T17:51:03.187Z,24.61
2022-09-10T17:52:42.942Z,24.56
2022-09-10T17:54:22.719Z,24.53
2022-09-10T17:56:02.486Z,24.53
2022-09-10T17:57:42.274Z,24.49
2022-09-10T17:59:22.014Z,24.42
2022-09-10T18:01:01.826Z,24.38
2022-09-10T18:02:41.542Z,24.34
2022-09-10T18:04:21.300Z,24.29
2022-09-10T18:06:01.068Z,24.24
2022-09-10T18:07:40.911Z,24.19
2022-09-10T18:09:20.608Z,24.14
2022-09-10T18:11:00.361Z,24.1
2022-09-10T18:12:40.121Z,24.05
2022-09-10T18:14:19.996Z,24
2022-09-10T18:15:59.653Z,23.96
2022-09-10T18:17:39.412Z,23.92
2022-09-10T18:19:19.186Z,23.88
2022-09-10T18:20:58.949Z,23.84
2022-09-10T18:22:38.716Z,23.81
2022-09-10T18:24:18.477Z,23.76
2022-09-10T18:25:58.241Z,23.71
2022-09-10T18:27:38.002Z,23.67
2022-09-10T18:30:57.541Z,23.59
2022-09-10T18:32:37.309Z,23.57
2022-09-10T18:37:36.600Z,23.45
2022-09-10T18:39:16.362Z,23.41
2022-09-10T18:40:56.120Z,23.37
2022-09-10T18:42:35.879Z,23.35
2022-09-10T18:44:15.649Z,23.31
2022-09-10T18:45:55.414Z,23.27
2022-09-10T18:47:35.195Z,23.25
2022-09-10T18:49:14.941Z,23.2
2022-09-10T18:50:54.699Z,23.19
2022-09-10T18:52:34.469Z,23.15
2022-09-10T18:54:14.268Z,23.1
2022-09-10T18:55:54.065Z,23.08
2022-09-10T18:57:33.763Z,23.06
2022-09-10T18:59:13.534Z,23.01
2022-09-10T19:00:53.300Z,22.98
2022-09-10T19:02:33.149Z,22.95
2022-09-10T19:04:12.820Z,22.92
2022-09-10T19:05:52.621Z,22.89
2022-09-10T19:07:32.355Z,22.88
2022-09-10T19:09:12.205Z,22.85
2022-09-10T19:10:51.885Z,22.81
2022-09-10T19:12:31.671Z,22.79
2022-09-10T19:14:11.418Z,22.76
2022-09-10T19:15:51.186Z,22.71
2022-09-10T19:17:31.022Z,22.69
2022-09-10T19:19:10.724Z,22.68
2022-09-10T19:20:50.460Z,22.63
2022-09-10T19:22:30.233Z,22.6
2022-09-10T19:24:10.026Z,22.57
2022-09-10T19:25:49.842Z,22.55
2022-09-10T19:27:29.624Z,22.53
2022-09-10T19:29:09.282Z,22.51
2022-09-10T19:30:49.174Z,22.48
2022-09-10T19:32:28.880Z,22.45
2022-09-10T19:34:08.678Z,22.41
2022-09-10T19:35:48.353Z,22.4
2022-09-10T19:37:28.136Z,22.37
2022-09-10T19:39:07.882Z,22.33
2022-09-10T19:40:47.632Z,22.31
2022-09-10T19:42:27.446Z,22.3
2022-09-10T19:44:07.159Z,22.25
2022-09-10T19:45:46.942Z,22.25
2022-09-10T19:47:26.799Z,22.2
2022-09-10T19:49:06.531Z,22.2
2022-09-10T19:50:46.230Z,22.16
2022-09-10T19:52:26.056Z,22.14
2022-09-10T19:54:05.791Z,22.11
2022-09-10T19:55:45.584Z,22.1
2022-09-10T19:59:05.043Z,22.05
2022-09-10T20:00:44.820Z,22.03
2022-09-10T20:02:24.580Z,22
2022-09-10T20:04:04.406Z,21.98
2022-09-10T20:05:44.112Z,21.96
2022-09-10T20:07:23.875Z,21.93
2022-09-10T20:09:03.640Z,21.91
2022-09-10T20:10:43.408Z,21.87
2022-09-10T20:12:23.182Z,21.85
2022-09-10T20:14:02.937Z,21.83
2022-09-10T20:15:42.689Z,21.8
2022-09-10T20:17:22.480Z,21.78
2022-09-10T20:19:02.246Z,21.75
2022-09-10T20:20:41.998Z,21.73
2022-09-10T20:22:21.756Z,21.71
2022-09-10T20:24:01.567Z,21.69
2022-09-10T20:25:41.279Z,21.67
2022-09-10T20:27:21.048Z,21.64
2022-09-10T20:29:00.828Z,21.61
2022-09-10T20:30:40.582Z,21.59
2022-09-10T20:32:20.342Z,21.57
2022-09-10T20:34:00.114Z,21.56
2022-09-10T20:35:39.868Z,21.53
2022-09-10T20:37:19.666Z,21.51
2022-09-10T20:38:59.415Z,21.47
2022-09-10T20:40:39.205Z,21.45
2022-09-10T20:42:18.932Z,21.43
2022-09-10T20:43:58.746Z,21.42
2022-09-10T20:45:38.463Z,21.38
2022-09-10T20:47:18.249Z,21.36
2022-09-10T20:48:57.978Z,21.34
2022-09-10T20:50:37.753Z,21.33
2022-09-10T20:52:17.509Z,21.31
2022-09-10T20:53:57.283Z,21.28
2022-09-10T20:55:37.048Z,21.27
2022-09-10T20:57:16.800Z,21.24
2022-09-10T20:58:56.569Z,21.23
2022-09-10T21:00:36.375Z,21.21
2022-09-10T21:02:16.138Z,21.18
2022-09-10T21:03:55.863Z,21.16
2022-09-10T21:05:35.628Z,21.12
2022-09-10T21:07:15.402Z,21.11
2022-09-10T21:08:55.157Z,21.08
2022-09-10T21:10:34.962Z,21.08
2022-09-10T21:12:14.725Z,21.05
2022-09-10T21:13:54.462Z,21.02
2022-09-10T21:15:34.217Z,21
2022-09-10T21:17:13.987Z,20.98
2022-09-10T21:18:53.735Z,20.96
2022-09-10T21:20:33.508Z,20.95
2022-09-10T21:22:13.291Z,20.92
2022-09-10T21:23:53.024Z,20.9
2022-09-10T21:25:32.798Z,20.89
2022-09-10T21:27:12.576Z,20.87
2022-09-10T21:28:52.352Z,20.83
2022-09-10T21:30:32.094Z,20.81
2022-09-10T21:32:11.898Z,20.8
2022-09-10T21:33:51.622Z,20.79
2022-09-10T21:35:31.408Z,20.76
2022-09-10T21:37:11.151Z,20.73
2022-09-10T21:38:50.921Z,20.72
2022-09-10T21:40:30.712Z,20.7
2022-09-10T21:42:10.451Z,20.69
2022-09-10T21:43:50.231Z,20.67
2022-09-10T21:45:29.979Z,20.64
2022-09-10T21:48:49.507Z,20.6
2022-09-10T21:50:29.263Z,20.6
2022-09-10T21:52:09.044Z,20.57
2022-09-10T21:53:48.796Z,20.54
2022-09-10T21:55:28.576Z,20.54
2022-09-10T21:57:08.383Z,20.5
2022-09-10T21:58:48.090Z,20.49
2022-09-10T22:00:27.856Z,20.49
2022-09-10T22:02:07.628Z,20.45
2022-09-10T22:03:47.422Z,20.43